aviador You're here:

SCSE Decoded Metar

LA SERENA in CHILE
Report Time2018-01-20 05:00:00
UTC Time2018-01-20 05:15:18
Flight Rules mvfr MVFR
Wind320° at 02 kt
W.Decomp.*RWY 29: 1.7 kt HW 1.0 kt RCW
W.Rank320° ranks 12
Current wind is below 320° avg. (5.1)
Visibility9999 m
Phenomena:N/A
Clouds:Overcast 017 Hf
Expected CloudBase > 1,600 ft AGL from Temp-Dew spread
Ceiling1,700 ft
Temp17°C (ISA +3)
Dew Point13°C (77% RH)
QNH1012 hPa
Density Alt1,063 ft
Elevation479 ft
Report Wrong Elevation
Raw Report
SCSE 200500Z 32002KT 9999 OVC017 17/13 Q1012=

Extra information for SCSE:More info

Metar Taf Metar & Taf Last 4 Metars F.Rules Stats Wind Profile Meteogram Temp Stats Airport Information Weather charts Add Link Nearby VenuesMetar ALERT Operation Metar Decoded Social comments